createdAt,value
2018-03-27T00:04:13.806Z,4.7
2018-03-27T00:09:13.808Z,4.7
2018-03-27T00:14:13.936Z,4.7
2018-03-27T00:19:13.814Z,4.7
2018-03-27T00:24:13.818Z,4.6
2018-03-27T00:29:13.817Z,4.6
2018-03-27T00:34:13.826Z,4.6
2018-03-27T00:39:13.779Z,4.6
2018-03-27T00:44:13.779Z,4.6
2018-03-27T00:49:13.966Z,4.6
2018-03-27T00:54:13.829Z,4.6
2018-03-27T00:59:13.831Z,4.5
2018-03-27T01:04:13.856Z,4.5
2018-03-27T01:09:13.837Z,4.5
2018-03-27T01:14:14.146Z,4.5
2018-03-27T01:19:13.799Z,4.5
2018-03-27T01:24:13.999Z,4.4
2018-03-27T01:29:14.044Z,4.5
2018-03-27T01:34:13.875Z,4.5
2018-03-27T01:39:13.999Z,4.5
2018-03-27T01:44:13.861Z,4.5
2018-03-27T01:49:13.966Z,4.4
2018-03-27T01:54:13.864Z,4.5
2018-03-27T01:59:14.041Z,4.5
2018-03-27T02:04:14.092Z,4.5
2018-03-27T02:09:13.865Z,4.5
2018-03-27T02:14:13.872Z,4.5
2018-03-27T02:19:13.919Z,4.5
2018-03-27T02:24:13.966Z,4.5
2018-03-27T02:29:14.032Z,4.6
2018-03-27T02:34:14.061Z,4.6
2018-03-27T02:39:14.094Z,4.7
2018-03-27T02:44:13.995Z,4.7
2018-03-27T02:49:13.882Z,4.7
2018-03-27T02:54:14.122Z,4.7
2018-03-27T02:59:14.014Z,4.7
2018-03-27T03:04:13.862Z,4.7
2018-03-27T03:09:13.885Z,4.7
2018-03-27T03:14:13.885Z,4.7
2018-03-27T03:19:13.918Z,4.7
2018-03-27T03:24:14.066Z,4.8
2018-03-27T03:29:13.858Z,4.8
2018-03-27T03:34:13.896Z,4.8
2018-03-27T03:39:13.904Z,4.9
2018-03-27T03:44:14.135Z,4.9
2018-03-27T03:49:14.043Z,4.8
2018-03-27T03:54:13.905Z,4.9
2018-03-27T03:59:13.907Z,4.9
2018-03-27T04:04:14.164Z,4.9
2018-03-27T04:09:14.063Z,4.9
2018-03-27T04:14:13.926Z,4.9
2018-03-27T04:19:18.254Z,4.8
2018-03-27T04:24:23.048Z,4.8
2018-03-27T04:29:17.977Z,4.8
2018-03-27T04:34:17.989Z,4.8
2018-03-27T04:39:18.182Z,4.8
2018-03-27T04:44:17.992Z,4.8
2018-03-27T04:49:17.993Z,4.8
2018-03-27T04:54:18.000Z,4.8
2018-03-27T04:59:18.210Z,4.8
2018-03-27T05:04:18.020Z,4.8
2018-03-27T05:09:18.171Z,4.8
2018-03-27T05:14:18.210Z,4.9
2018-03-27T05:19:17.985Z,4.9
2018-03-27T05:24:18.182Z,4.9
2018-03-27T05:29:18.216Z,4.9
2018-03-27T05:34:18.244Z,4.9
2018-03-27T05:39:18.171Z,4.9
2018-03-27T05:49:18.250Z,4.8
2018-03-27T05:54:18.033Z,4.9
2018-03-27T05:59:18.219Z,4.6
2018-03-27T06:04:18.245Z,4.5
2018-03-27T06:09:18.044Z,4.4
2018-03-27T06:14:18.003Z,4.5
2018-03-27T06:19:18.046Z,4.4
2018-03-27T06:24:18.023Z,4.5
2018-03-27T06:29:18.006Z,4.6
2018-03-27T06:34:18.254Z,4.6
2018-03-27T06:39:18.160Z,4.7
2018-03-27T06:44:18.047Z,4.7
2018-03-27T06:49:18.218Z,4.7
2018-03-27T06:54:18.307Z,4.8
2018-03-27T06:59:18.317Z,4.9
2018-03-27T07:04:18.460Z,5.1
2018-03-27T07:09:18.329Z,5.1
2018-03-27T07:14:18.312Z,5.1
2018-03-27T07:19:18.576Z,5.1
2018-03-27T07:24:18.499Z,5.1
2018-03-27T07:29:18.326Z,5.2
2018-03-27T07:34:18.522Z,5.4
2018-03-27T07:39:18.467Z,5.5
2018-03-27T07:44:18.339Z,5.5
2018-03-27T07:49:18.305Z,5.8
2018-03-27T07:54:18.471Z,5.9
2018-03-27T07:59:18.361Z,6.3
2018-03-27T08:04:18.558Z,6.6
2018-03-27T08:09:18.454Z,6.6
2018-03-27T08:14:18.361Z,6.7
2018-03-27T08:19:18.545Z,6.6
2018-03-27T08:24:18.407Z,6.6
2018-03-27T08:29:18.520Z,6.6
2018-03-27T08:34:18.549Z,6.6
2018-03-27T08:39:18.589Z,6.5
2018-03-27T08:44:18.497Z,6.7
2018-03-27T08:49:18.380Z,6.7
2018-03-27T08:54:18.393Z,6.6
2018-03-27T08:59:18.391Z,6.7
2018-03-27T09:04:18.516Z,6.7
2018-03-27T09:09:18.382Z,6.5
2018-03-27T09:14:20.033Z,6.5
2018-03-27T09:19:24.818Z,7
2018-03-27T09:24:19.732Z,6.8
2018-03-27T09:29:19.951Z,6.9
2018-03-27T09:34:19.754Z,6.9
2018-03-27T09:39:19.893Z,6.8
2018-03-27T09:44:19.868Z,6.9
2018-03-27T09:49:19.975Z,6.6
2018-03-27T09:54:19.753Z,6.6
2018-03-27T09:59:19.769Z,6.3
2018-03-27T10:04:19.962Z,6.2
2018-03-27T10:09:20.116Z,6.1
2018-03-27T10:14:20.090Z,5.9
2018-03-27T10:19:20.344Z,5.6
2018-03-27T10:24:20.297Z,5.4
2018-03-27T10:29:20.216Z,5.2
2018-03-27T10:34:20.135Z,5.4
2018-03-27T10:39:20.319Z,5.3
2018-03-27T10:44:20.106Z,5.3
2018-03-27T10:49:20.105Z,5.2
2018-03-27T10:54:20.144Z,5.2
2018-03-27T10:59:20.139Z,5.2
2018-03-27T11:04:20.285Z,5.2
2018-03-27T11:09:20.193Z,5.3
2018-03-27T11:14:20.197Z,5.4
2018-03-27T11:19:20.383Z,5.6
2018-03-27T11:24:20.414Z,5.8
2018-03-27T11:29:20.309Z,6.2
2018-03-27T11:34:20.212Z,6.2
2018-03-27T11:39:20.411Z,6.1
2018-03-27T11:44:20.354Z,6.1
2018-03-27T11:49:20.322Z,6.1
2018-03-27T11:54:20.215Z,6.3
2018-03-27T11:59:20.208Z,6.8
2018-03-27T12:04:20.221Z,6.6
2018-03-27T12:09:20.223Z,6.5
2018-03-27T12:14:20.212Z,6.4
2018-03-27T12:19:20.201Z,6.2
2018-03-27T12:24:20.415Z,6.4
2018-03-27T12:29:20.250Z,6.4
2018-03-27T12:34:20.377Z,6.3
2018-03-27T12:39:20.391Z,6.5
2018-03-27T12:44:20.442Z,6.7
2018-03-27T12:49:20.233Z,6.7
2018-03-27T12:54:20.400Z,6.9
2018-03-27T12:59:20.268Z,6.9
2018-03-27T13:04:20.477Z,7
2018-03-27T13:09:20.385Z,7.1
2018-03-27T13:14:20.252Z,7.2
2018-03-27T13:19:20.481Z,7
2018-03-27T13:24:20.392Z,7
2018-03-27T13:29:20.246Z,7.1
2018-03-27T13:34:20.400Z,7
2018-03-27T13:39:20.455Z,7
2018-03-27T13:44:20.571Z,6.8
2018-03-27T13:49:20.676Z,6.9
2018-03-27T13:54:20.632Z,6.9
2018-03-27T13:59:20.449Z,7
2018-03-27T14:04:23.369Z,7
2018-03-27T14:09:28.692Z,6.8
2018-03-27T14:14:23.483Z,6.6
2018-03-27T14:19:23.387Z,6.6
2018-03-27T14:24:23.545Z,6.4
2018-03-27T14:29:23.600Z,6.7
2018-03-27T14:34:23.524Z,6.6
2018-03-27T14:39:23.589Z,6.8
2018-03-27T14:44:23.383Z,7
2018-03-27T14:49:23.399Z,7.3
2018-03-27T14:54:23.570Z,7.3
2018-03-27T14:59:23.596Z,7.4
2018-03-27T15:04:23.524Z,7.5
2018-03-27T15:09:23.508Z,7.6
2018-03-27T15:14:23.610Z,7.4
2018-03-27T15:19:23.584Z,7.6
2018-03-27T15:24:23.593Z,7.6
2018-03-27T15:29:23.600Z,7.8
2018-03-27T15:34:23.604Z,7.8
2018-03-27T15:44:23.612Z,7.6
2018-03-27T15:49:23.612Z,7.4
2018-03-27T15:54:23.611Z,7.6
2018-03-27T15:59:23.589Z,7.6
2018-03-27T16:04:23.631Z,7.5
2018-03-27T16:09:23.617Z,7.5
2018-03-27T16:14:23.611Z,7.4
2018-03-27T16:19:23.620Z,7.3
2018-03-27T16:24:23.624Z,7.3
2018-03-27T16:29:23.639Z,7.3
2018-03-27T16:34:23.593Z,7.2
2018-03-27T16:39:23.603Z,7.1
2018-03-27T16:44:23.622Z,6.9
2018-03-27T16:49:23.638Z,6.9
2018-03-27T16:54:23.751Z,6.8
2018-03-27T16:59:23.790Z,6.7
2018-03-27T17:04:23.816Z,6.7
2018-03-27T17:09:23.878Z,6.5
2018-03-27T17:14:23.607Z,6.4
2018-03-27T17:19:23.827Z,6.2
2018-03-27T17:24:23.620Z,5.9
2018-03-27T17:29:23.810Z,5.8
2018-03-27T17:34:23.824Z,5.5
2018-03-27T17:39:23.891Z,5.5
2018-03-27T17:44:23.678Z,5.3
2018-03-27T17:49:23.821Z,5.2
2018-03-27T17:54:23.671Z,5
2018-03-27T17:59:23.668Z,4.8
2018-03-27T18:04:23.656Z,4.8
2018-03-27T18:09:23.674Z,4.6
2018-03-27T18:14:23.686Z,4.7
2018-03-27T18:19:23.680Z,4.6
2018-03-27T18:24:23.691Z,4.2
2018-03-27T18:29:23.691Z,4.3
2018-03-27T18:34:23.706Z,4.2
2018-03-27T18:39:23.685Z,4.1
2018-03-27T18:44:23.918Z,4
2018-03-27T18:49:23.949Z,3.9
2018-03-27T18:54:23.853Z,3.6
2018-03-27T18:59:23.724Z,3.8
2018-03-27T19:04:28.827Z,3.8
2018-03-27T19:09:33.818Z,3.8
2018-03-27T19:14:28.548Z,3.8
2018-03-27T19:19:28.545Z,3.8
2018-03-27T19:24:28.687Z,3.9
2018-03-27T19:29:28.560Z,3.7
2018-03-27T19:34:28.533Z,3.7
2018-03-27T19:39:28.549Z,3.7
2018-03-27T19:44:28.616Z,3.7
2018-03-27T19:49:28.543Z,3.7
2018-03-27T19:54:28.577Z,3.7
2018-03-27T19:59:28.937Z,3.6
2018-03-27T20:04:28.876Z,3.4
2018-03-27T20:09:28.683Z,3.3
2018-03-27T20:14:28.683Z,3.3
2018-03-27T20:19:28.800Z,3.3
2018-03-27T20:24:28.693Z,3.2
2018-03-27T20:29:28.935Z,3.1
2018-03-27T20:34:28.830Z,3
2018-03-27T20:39:28.710Z,2.9
2018-03-27T20:44:28.703Z,2.9
2018-03-27T20:49:28.839Z,2.8
2018-03-27T20:54:28.701Z,2.6
2018-03-27T20:59:28.690Z,2.6
2018-03-27T21:04:28.708Z,2.5
2018-03-27T21:09:28.721Z,2.5
2018-03-27T21:14:28.650Z,2.3
2018-03-27T21:19:28.669Z,2.3
2018-03-27T21:24:28.700Z,2.2
2018-03-27T21:29:28.743Z,2.3
2018-03-27T21:34:28.732Z,2.1
2018-03-27T21:39:28.719Z,2.2
2018-03-27T21:44:28.734Z,2
2018-03-27T21:49:28.739Z,2
2018-03-27T21:54:28.866Z,1.8
2018-03-27T21:59:28.880Z,1.8
2018-03-27T22:04:28.917Z,1.8
2018-03-27T22:09:28.717Z,1.7
2018-03-27T22:14:28.902Z,1.6
2018-03-27T22:19:28.737Z,1.7
2018-03-27T22:24:28.749Z,1.6
2018-03-27T22:29:28.753Z,1.4
2018-03-27T22:34:28.937Z,1.4
2018-03-27T22:39:28.871Z,1.4
2018-03-27T22:44:28.896Z,1.2
2018-03-27T22:49:28.753Z,1.3
2018-03-27T22:54:28.875Z,1.2
2018-03-27T22:59:28.755Z,1.2
2018-03-27T23:04:28.874Z,1
2018-03-27T23:09:28.879Z,1
2018-03-27T23:14:28.887Z,1.1
2018-03-27T23:19:28.935Z,1
2018-03-27T23:24:28.784Z,0.9
2018-03-27T23:29:28.913Z,0.9
2018-03-27T23:34:28.909Z,0.9
2018-03-27T23:39:28.781Z,0.9
2018-03-27T23:44:28.892Z,0.9
2018-03-27T23:49:28.771Z,0.8
2018-03-27T23:54:28.801Z,0.9
2018-03-27T23:59:30.425Z,0.7
